Time;durP1;ratioP1;P1;durP2;ratioP2;P2;SDS_P1;SDS_P2;PMS_P1;PMS_P2;Temp;Humidity;BMP_temperature;BMP_pressure;BME280_temperature;BME280_humidity;BME280_pressure;Samples;Min_cycle;Max_cycle;Signal;HPM_P1;HPM_P2
2022/01/08 00:02:20;;;;;;;8.15;3.80;;;2.30;99.90;;;;;;5036552;28;20040;-71
2022/01/08 00:04:45;;;;;;;9.65;3.83;;;2.20;99.90;;;;;;5037541;28;20048;-71
2022/01/08 00:07:11;;;;;;;8.57;3.55;;;2.30;99.90;;;;;;5036589;28;20504;-70
2022/01/08 00:09:36;;;;;;;7.38;4.00;;;2.20;99.90;;;;;;5036612;28;20389;-70
2022/01/08 00:12:02;;;;;;;8.90;3.72;;;2.20;99.90;;;;;;5036364;28;20489;-71
2022/01/08 00:14:29;;;;;;;8.55;3.40;;;2.20;99.90;;;;;;5036242;28;20071;-71
2022/01/08 00:16:54;;;;;;;5.60;3.13;;;2.20;99.90;;;;;;5019631;28;20045;-71
2022/01/08 00:19:20;;;;;;;11.38;3.40;;;2.20;99.90;;;;;;5036163;28;20037;-70
2022/01/08 00:21:45;;;;;;;8.73;4.03;;;2.20;99.90;;;;;;5036366;28;20047;-70
2022/01/08 00:24:11;;;;;;;6.18;3.45;;;2.20;99.90;;;;;;5036093;28;20044;-71
2022/01/08 00:26:36;;;;;;;7.63;3.28;;;2.20;99.90;;;;;;5035939;28;20083;-70
2022/01/08 00:29:03;;;;;;;8.30;3.00;;;2.20;99.90;;;;;;5019588;28;20059;-70
2022/01/08 00:31:29;;;;;;;9.85;3.72;;;2.30;99.90;;;;;;5036278;28;20059;-70
2022/01/08 00:33:56;;;;;;;5.68;3.47;;;2.40;99.90;;;;;;5036265;28;20055;-70
2022/01/08 00:36:21;;;;;;;11.50;3.53;;;2.30;99.90;;;;;;5019297;28;20136;-70
2022/01/08 00:38:47;;;;;;;8.90;3.55;;;2.40;99.90;;;;;;5035823;28;20068;-70
2022/01/08 00:41:13;;;;;;;9.98;3.55;;;2.40;99.90;;;;;;5035778;28;20048;-70
2022/01/08 00:43:38;;;;;;;9.02;3.53;;;2.40;99.90;;;;;;5035857;28;20401;-70
2022/01/08 00:46:04;;;;;;;9.35;3.30;;;2.40;99.90;;;;;;5035587;28;20040;-70
2022/01/08 00:48:30;;;;;;;6.80;3.00;;;2.40;99.90;;;;;;5035918;28;20045;-70
2022/01/08 00:50:55;;;;;;;9.65;3.22;;;2.40;99.90;;;;;;5035599;28;20408;-70
2022/01/08 00:53:21;;;;;;;9.68;3.53;;;2.40;99.90;;;;;;5035614;28;20047;-70
2022/01/08 00:55:47;;;;;;;8.13;3.83;;;2.40;99.90;;;;;;5018927;28;20079;-70
2022/01/08 00:58:12;;;;;;;8.93;3.72;;;2.40;99.90;;;;;;5035471;28;20044;-70
2022/01/08 01:00:38;;;;;;;7.82;3.70;;;2.40;99.90;;;;;;5035697;28;20063;-70
2022/01/08 01:03:04;;;;;;;8.80;3.70;;;2.40;99.90;;;;;;5035656;28;20048;-70
2022/01/08 01:05:30;;;;;;;11.15;4.38;;;2.40;99.90;;;;;;5035602;28;20086;-70
2022/01/08 01:07:55;;;;;;;8.63;3.83;;;2.40;99.90;;;;;;5035373;28;20076;-71
2022/01/08 01:10:21;;;;;;;11.63;4.35;;;2.30;99.90;;;;;;5035369;28;20045;-70
2022/01/08 01:12:47;;;;;;;9.20;4.20;;;2.40;99.90;;;;;;5034601;28;20127;-70
2022/01/08 01:15:15;;;;;;;8.98;4.22;;;2.30;99.90;;;;;;5035167;28;20037;-70
2022/01/08 01:17:42;;;;;;;8.77;4.32;;;2.30;99.90;;;;;;5035572;28;20067;-70
2022/01/08 01:20:09;;;;;;;9.25;4.13;;;2.30;99.90;;;;;;5035200;28;20037;-70
2022/01/08 01:22:55;;;;;;;8.32;4.28;;;2.20;99.90;;;;;;5035209;28;20094;-70
2022/01/08 01:25:28;;;;;;;12.93;5.45;;;2.20;99.90;;;;;;5035025;28;20052;-70
2022/01/08 01:28:04;;;;;;;9.18;4.82;;;2.10;99.90;;;;;;5019164;28;20047;-70
2022/01/08 01:41:48;;;;;;;12.82;6.60;;;1.90;99.90;;;;;;5035072;28;20493;-70
2022/01/08 01:47:01;;;;;;;10.85;6.53;;;1.90;99.90;;;;;;5034845;28;20564;-70
2022/01/08 01:49:28;;;;;;;12.93;6.55;;;1.80;99.90;;;;;;5018793;28;20115;-70
2022/01/08 01:51:55;;;;;;;15.85;7.05;;;1.70;99.90;;;;;;5035261;28;20163;-70
2022/01/08 01:54:20;;;;;;;13.10;7.35;;;1.70;99.90;;;;;;5034885;28;20496;-70
2022/01/08 01:56:46;;;;;;;14.82;7.65;;;1.70;99.90;;;;;;5034811;28;20041;-70
2022/01/08 01:59:13;;;;;;;16.05;8.32;;;1.70;99.90;;;;;;5034921;28;20044;-70
2022/01/08 02:01:38;;;;;;;17.42;8.32;;;1.70;99.90;;;;;;5034757;28;20471;-70
2022/01/08 02:04:04;;;;;;;19.58;9.43;;;1.70;99.90;;;;;;5035101;28;20176;-70
2022/01/08 02:06:29;;;;;;;14.73;8.40;;;1.80;99.90;;;;;;5034781;28;20501;-70
2022/01/08 02:08:55;;;;;;;14.70;8.35;;;1.80;99.90;;;;;;5035027;28;20122;-70
2022/01/08 02:11:21;;;;;;;14.88;8.57;;;1.80;99.90;;;;;;5034792;28;20174;-70
2022/01/08 02:13:46;;;;;;;20.75;8.88;;;1.90;99.90;;;;;;5034958;28;20071;-70
2022/01/08 02:16:17;;;;;;;18.33;8.57;;;1.90;99.90;;;;;;5034532;28;20081;-70
2022/01/08 02:18:47;;;;;;;12.77;8.63;;;1.90;99.90;;;;;;5034954;28;20044;-70
2022/01/08 02:21:14;;;;;;;18.40;8.55;;;2.00;99.90;;;;;;5034662;28;20497;-70
2022/01/08 02:23:41;;;;;;;13.02;7.60;;;2.10;99.90;;;;;;5035467;28;20033;-70
2022/01/08 02:26:09;;;;;;;11.85;6.72;;;2.10;99.90;;;;;;5038159;28;20041;-70
2022/01/08 02:28:36;;;;;;;16.95;6.78;;;2.20;99.90;;;;;;5038485;28;20041;-70
2022/01/08 02:31:02;;;;;;;12.18;6.22;;;2.30;99.90;;;;;;5038216;28;20488;-70
2022/01/08 02:33:29;;;;;;;11.57;6.97;;;2.20;99.90;;;;;;5038349;28;20519;-70
2022/01/08 02:35:56;;;;;;;12.20;7.85;;;2.30;99.90;;;;;;5037979;28;20048;-70
2022/01/08 02:38:21;;;;;;;14.32;7.65;;;2.30;99.90;;;;;;5038335;28;20032;-70
2022/01/08 02:40:56;;;;;;;14.05;7.20;;;2.20;99.90;;;;;;5038078;28;20087;-70
2022/01/08 02:43:23;;;;;;;16.73;7.85;;;2.20;99.90;;;;;;5021592;28;20039;-70
2022/01/08 02:45:48;;;;;;;14.07;7.47;;;2.20;99.90;;;;;;5037925;28;20045;-71
2022/01/08 02:48:14;;;;;;;16.80;6.93;;;2.20;99.90;;;;;;5038209;28;20056;-71
2022/01/08 02:50:39;;;;;;;16.40;7.38;;;2.10;99.90;;;;;;5037921;28;20382;-70
2022/01/08 02:53:05;;;;;;;13.65;6.05;;;2.10;99.90;;;;;;5038176;28;20045;-70
2022/01/08 02:55:31;;;;;;;20.08;7.20;;;2.10;99.90;;;;;;5037733;28;20055;-70
2022/01/08 02:57:56;;;;;;;10.30;5.72;;;2.10;99.90;;;;;;5037710;28;20044;-70
2022/01/08 03:00:22;;;;;;;7.95;5.00;;;2.00;99.90;;;;;;5037957;28;20045;-70
2022/01/08 03:02:50;;;;;;;11.68;5.70;;;2.00;99.90;;;;;;5037661;28;20033;-70
2022/01/08 03:05:17;;;;;;;15.23;5.97;;;2.00;99.90;;;;;;5037492;28;20053;-70
2022/01/08 03:07:44;;;;;;;12.38;5.45;;;2.00;99.90;;;;;;5037570;28;20441;-70
2022/01/08 03:10:12;;;;;;;12.35;6.35;;;2.00;99.90;;;;;;5037576;28;20052;-70
2022/01/08 03:12:41;;;;;;;16.90;6.22;;;1.90;99.90;;;;;;5037488;28;20036;-70
2022/01/08 03:15:19;;;;;;;12.55;6.20;;;1.90;99.90;;;;;;5038226;28;20053;-70
2022/01/08 03:17:45;;;;;;;11.93;5.90;;;1.90;99.90;;;;;;5037465;28;20124;-70
2022/01/08 03:20:14;;;;;;;9.73;5.38;;;1.80;99.90;;;;;;5037571;28;20076;-70
2022/01/08 03:22:42;;;;;;;12.40;6.70;;;1.80;99.90;;;;;;5037247;28;20051;-70
2022/01/08 03:25:09;;;;;;;10.60;5.55;;;1.80;99.90;;;;;;5036943;28;20527;-70
2022/01/08 03:27:35;;;;;;;10.05;5.43;;;1.70;99.90;;;;;;5037318;28;20083;-70
2022/01/08 03:30:03;;;;;;;11.55;5.93;;;1.70;99.90;;;;;;5037214;28;20111;-70
2022/01/08 03:32:28;;;;;;;15.68;6.38;;;1.70;99.90;;;;;;5037444;28;20045;-70
2022/01/08 03:34:54;;;;;;;10.68;5.35;;;1.70;99.90;;;;;;5036706;28;20574;-70
2022/01/08 03:37:19;;;;;;;12.80;5.35;;;1.70;99.90;;;;;;5036745;28;20489;-70
2022/01/08 03:39:45;;;;;;;13.27;5.47;;;1.60;99.90;;;;;;5020641;28;20047;-70
2022/01/08 03:42:11;;;;;;;11.10;5.55;;;1.60;99.90;;;;;;5036938;28;20037;-70
2022/01/08 03:44:37;;;;;;;8.27;5.25;;;1.60;99.90;;;;;;5037199;28;20041;-70
2022/01/08 03:47:29;;;;;;;8.88;4.68;;;1.60;99.90;;;;;;5054642;28;20515;-70
2022/01/08 03:49:56;;;;;;;11.02;4.25;;;1.70;99.90;;;;;;5020302;28;20071;-70
2022/01/08 03:52:22;;;;;;;11.05;4.85;;;1.70;99.90;;;;;;5036722;28;20055;-70
2022/01/08 03:54:48;;;;;;;7.70;4.55;;;1.80;99.90;;;;;;5036678;28;20090;-70
2022/01/08 03:57:14;;;;;;;12.02;4.63;;;1.80;99.90;;;;;;5036537;28;20045;-70
2022/01/08 03:59:39;;;;;;;8.32;4.20;;;1.80;99.90;;;;;;5054518;28;20044;-70
2022/01/08 04:02:05;;;;;;;11.82;4.30;;;1.80;99.90;;;;;;5036496;28;20055;-70
2022/01/08 04:04:31;;;;;;;8.77;3.92;;;1.80;99.90;;;;;;5036501;28;20091;-70
2022/01/08 04:06:57;;;;;;;10.63;3.95;;;1.90;99.90;;;;;;5036362;28;20033;-70
2022/01/08 04:09:22;;;;;;;9.73;3.90;;;1.90;99.90;;;;;;5054168;28;20041;-70
2022/01/08 04:11:48;;;;;;;10.07;4.35;;;2.00;99.90;;;;;;5020177;28;20049;-70
2022/01/08 04:14:16;;;;;;;10.85;4.30;;;1.90;99.90;;;;;;5036367;28;20412;-70
2022/01/08 04:16:46;;;;;;;11.43;4.85;;;1.90;99.90;;;;;;5036099;28;20048;-70
2022/01/08 04:19:11;;;;;;;14.18;5.22;;;2.00;99.90;;;;;;5036191;28;20124;-70
2022/01/08 04:21:59;;;;;;;10.27;5.10;;;1.90;99.90;;;;;;5036190;28;20120;-70
2022/01/08 04:24:25;;;;;;;14.18;5.32;;;1.90;99.90;;;;;;5036383;28;20573;-70
2022/01/08 04:26:51;;;;;;;14.13;6.07;;;1.90;99.90;;;;;;5035862;28;20048;-70
2022/01/08 04:29:16;;;;;;;11.70;6.47;;;1.90;99.90;;;;;;5019556;28;20045;-70
2022/01/08 04:31:42;;;;;;;11.95;6.32;;;1.80;99.90;;;;;;5035947;28;20049;-70
2022/01/08 04:34:08;;;;;;;13.98;7.20;;;1.90;99.90;;;;;;5036267;28;20041;-70
2022/01/08 04:36:33;;;;;;;13.30;7.07;;;1.80;99.90;;;;;;5035767;28;20485;-70
2022/01/08 04:38:59;;;;;;;14.55;6.88;;;1.80;99.90;;;;;;5035806;28;20060;-70
2022/01/08 04:41:24;;;;;;;15.45;7.53;;;1.80;99.90;;;;;;5019658;28;20064;-70
2022/01/08 04:43:50;;;;;;;13.25;7.68;;;1.80;99.90;;;;;;5035834;28;20462;-70
2022/01/08 04:46:16;;;;;;;14.70;7.05;;;1.70;99.90;;;;;;5019239;28;20049;-70
2022/01/08 04:48:41;;;;;;;14.23;8.00;;;1.70;99.90;;;;;;5035713;28;20040;-70
2022/01/08 04:51:07;;;;;;;17.77;7.95;;;1.70;99.90;;;;;;5019142;28;20036;-70
2022/01/08 04:53:33;;;;;;;18.27;8.13;;;1.70;99.90;;;;;;5035566;28;20116;-70
2022/01/08 04:55:58;;;;;;;17.42;8.48;;;1.70;99.90;;;;;;5035655;28;20175;-70
2022/01/08 04:58:24;;;;;;;15.02;7.95;;;1.70;99.90;;;;;;5053638;28;20497;-70
2022/01/08 05:00:49;;;;;;;17.85;7.63;;;1.70;99.90;;;;;;5035551;28;20560;-70
2022/01/08 05:03:15;;;;;;;14.05;7.68;;;1.60;99.90;;;;;;5019344;28;20049;-70
2022/01/08 05:05:41;;;;;;;18.52;8.60;;;1.60;99.90;;;;;;5035467;28;20041;-70
2022/01/08 05:08:07;;;;;;;15.00;8.07;;;1.60;99.90;;;;;;5035478;28;20119;-70
2022/01/08 05:10:34;;;;;;;18.63;7.57;;;1.60;99.90;;;;;;5035329;28;20098;-70
2022/01/08 05:13:04;;;;;;;16.38;7.30;;;1.60;99.90;;;;;;5035545;28;20045;-70
2022/01/08 05:15:34;;;;;;;14.70;7.40;;;1.60;99.90;;;;;;5035174;28;20159;-70
2022/01/08 05:18:00;;;;;;;17.25;8.02;;;1.70;99.90;;;;;;5035264;28;20037;-70
2022/01/08 05:20:30;;;;;;;15.48;7.50;;;1.60;99.90;;;;;;5035487;28;20041;-70
2022/01/08 05:23:00;;;;;;;16.45;7.20;;;1.70;99.90;;;;;;5035275;28;20510;-70
2022/01/08 05:25:27;;;;;;;18.90;7.57;;;1.70;99.90;;;;;;5035813;28;20057;-69
2022/01/08 05:27:54;;;;;;;17.70;7.50;;;1.70;99.90;;;;;;5035423;28;20128;-68
2022/01/08 05:30:21;;;;;;;17.42;7.57;;;1.70;99.90;;;;;;5052950;28;20103;-68
2022/01/08 05:32:48;;;;;;;13.60;6.47;;;1.70;99.90;;;;;;5035096;28;20519;-68
2022/01/08 05:35:13;;;;;;;16.33;7.10;;;1.60;99.90;;;;;;5035013;28;20041;-68
2022/01/08 05:37:39;;;;;;;15.88;6.80;;;1.60;99.90;;;;;;5018884;28;20033;-68
2022/01/08 05:40:05;;;;;;;12.43;6.05;;;1.60;99.90;;;;;;5035259;28;20041;-68
2022/01/08 05:42:31;;;;;;;17.20;7.30;;;1.60;99.90;;;;;;5035023;28;20412;-68
2022/01/08 05:44:57;;;;;;;14.20;6.45;;;1.50;99.90;;;;;;5035182;28;20049;-69
2022/01/08 05:47:23;;;;;;;14.10;6.40;;;1.50;99.90;;;;;;5034947;28;20045;-68
2022/01/08 05:49:48;;;;;;;13.43;5.82;;;1.50;99.90;;;;;;5035269;28;20134;-68
2022/01/08 05:52:14;;;;;;;14.25;5.82;;;1.50;99.90;;;;;;5034913;28;20519;-68
2022/01/08 05:54:40;;;;;;;14.40;6.38;;;1.40;99.90;;;;;;5035161;28;20044;-68
2022/01/08 05:57:06;;;;;;;13.32;5.80;;;1.50;99.90;;;;;;5034797;28;20136;-68
2022/01/08 05:59:32;;;;;;;13.25;5.47;;;1.40;99.90;;;;;;5037235;28;20071;-68
2022/01/08 06:01:58;;;;;;;13.05;5.60;;;1.40;99.90;;;;;;5038776;28;20037;-68
2022/01/08 06:04:24;;;;;;;13.60;5.07;;;1.40;99.90;;;;;;5022221;28;20041;-68
2022/01/08 06:06:49;;;;;;;17.85;5.75;;;1.40;99.90;;;;;;5038894;28;20041;-68
2022/01/08 06:09:15;;;;;;;16.63;5.25;;;1.40;99.90;;;;;;5038918;28;20045;-68
2022/01/08 06:11:41;;;;;;;11.82;5.07;;;1.30;99.90;;;;;;5038596;28;20120;-68
2022/01/08 06:14:07;;;;;;;14.27;5.25;;;1.30;99.90;;;;;;5038851;28;20090;-68
2022/01/08 06:16:35;;;;;;;10.80;5.05;;;1.30;99.90;;;;;;5038389;28;20123;-68
2022/01/08 06:19:07;;;;;;;12.88;6.18;;;1.30;99.90;;;;;;5038461;28;20049;-68
2022/01/08 06:21:33;;;;;;;12.48;5.03;;;1.30;99.90;;;;;;5038407;28;20547;-68
2022/01/08 06:23:58;;;;;;;14.68;5.38;;;1.20;99.90;;;;;;5038644;28;20044;-68
2022/01/08 06:26:24;;;;;;;15.10;5.43;;;1.20;99.90;;;;;;5038455;28;20044;-68
2022/01/08 06:28:51;;;;;;;12.32;4.95;;;1.20;99.90;;;;;;5038529;28;20516;-68
2022/01/08 06:31:19;;;;;;;15.80;4.95;;;1.20;99.90;;;;;;5038176;28;20044;-68
2022/01/08 06:33:45;;;;;;;14.32;4.82;;;1.20;99.90;;;;;;5038171;28;20040;-68
2022/01/08 06:36:10;;;;;;;13.38;4.63;;;1.20;99.90;;;;;;5038986;28;20045;-68
2022/01/08 06:38:36;;;;;;;15.35;4.70;;;1.20;99.90;;;;;;5038099;28;20408;-68
2022/01/08 06:41:02;;;;;;;12.57;4.10;;;1.20;99.90;;;;;;5038045;28;20044;-68
2022/01/08 06:43:27;;;;;;;14.38;5.10;;;1.20;99.90;;;;;;5038035;28;20048;-68
2022/01/08 06:45:53;;;;;;;15.32;5.00;;;1.20;99.90;;;;;;5037941;28;20044;-68
2022/01/08 06:48:18;;;;;;;14.82;5.10;;;1.20;99.90;;;;;;5038006;28;20464;-68
2022/01/08 06:50:45;;;;;;;15.07;4.90;;;1.20;99.90;;;;;;5037958;28;20041;-68
2022/01/08 06:53:10;;;;;;;12.38;4.82;;;1.20;99.90;;;;;;5038104;28;20044;-68
2022/01/08 06:55:36;;;;;;;13.23;5.07;;;1.20;99.90;;;;;;5037730;28;20389;-68
2022/01/08 06:58:02;;;;;;;12.88;5.55;;;1.20;99.90;;;;;;5037725;28;20051;-68
2022/01/08 07:00:28;;;;;;;11.75;5.00;;;1.20;99.90;;;;;;5037758;28;20037;-68
2022/01/08 07:02:53;;;;;;;13.23;5.40;;;1.20;99.90;;;;;;5037720;28;20044;-68
2022/01/08 07:05:19;;;;;;;15.95;5.45;;;1.20;99.90;;;;;;5037615;28;20091;-68
2022/01/08 07:07:44;;;;;;;12.90;5.38;;;1.10;99.90;;;;;;5037766;28;20527;-68
2022/01/08 07:10:10;;;;;;;17.98;5.88;;;1.10;99.90;;;;;;5036444;28;20409;-68
2022/01/08 07:12:36;;;;;;;17.77;6.40;;;1.10;99.90;;;;;;5037506;28;20032;-68
2022/01/08 07:15:02;;;;;;;16.15;5.85;;;1.10;99.90;;;;;;5037366;28;20045;-68
2022/01/08 07:17:28;;;;;;;13.88;5.70;;;1.10;99.90;;;;;;5038502;28;20059;-68
2022/01/08 07:19:53;;;;;;;15.90;5.88;;;1.10;99.90;;;;;;5037720;28;20045;-68
2022/01/08 07:22:19;;;;;;;17.30;6.45;;;1.00;99.90;;;;;;5037409;28;20408;-68
2022/01/08 07:24:44;;;;;;;14.43;6.32;;;1.10;99.90;;;;;;5037394;28;20182;-68
2022/01/08 07:27:10;;;;;;;11.18;5.85;;;1.10;99.90;;;;;;5037116;28;20049;-68
2022/01/08 07:29:36;;;;;;;17.27;6.47;;;1.00;99.90;;;;;;5037582;28;20081;-68
2022/01/08 07:32:01;;;;;;;17.90;6.10;;;1.00;99.90;;;;;;5037223;28;20553;-68
2022/01/08 07:34:27;;;;;;;14.80;5.90;;;1.00;99.90;;;;;;5037145;28;20118;-68
2022/01/08 07:36:52;;;;;;;13.95;5.07;;;1.00;99.90;;;;;;5036968;28;20041;-68
2022/01/08 07:39:18;;;;;;;14.98;4.78;;;1.10;99.90;;;;;;5037048;28;20037;-68
2022/01/08 07:41:44;;;;;;;14.88;4.57;;;1.10;99.90;;;;;;5037051;28;20051;-68
2022/01/08 07:44:09;;;;;;;19.10;5.50;;;1.10;99.90;;;;;;5037790;28;20045;-68
2022/01/08 07:46:35;;;;;;;17.90;5.40;;;1.10;99.90;;;;;;5036856;28;20041;-68
2022/01/08 07:49:00;;;;;;;17.30;5.13;;;1.10;99.90;;;;;;5037208;28;20099;-68
2022/01/08 07:51:26;;;;;;;11.73;5.18;;;1.10;99.90;;;;;;5037082;28;20087;-68
2022/01/08 07:53:51;;;;;;;15.50;4.50;;;1.20;99.90;;;;;;5020337;28;20128;-68
2022/01/08 07:56:17;;;;;;;12.23;4.82;;;1.20;99.90;;;;;;5036632;28;20048;-68
2022/01/08 07:58:43;;;;;;;19.33;5.22;;;1.20;99.90;;;;;;5036727;28;20045;-68
2022/01/08 08:01:08;;;;;;;21.52;5.32;;;1.20;99.90;;;;;;5036668;28;20037;-68
2022/01/08 08:03:34;;;;;;;16.33;5.10;;;1.20;99.90;;;;;;5036679;28;20086;-68
2022/01/08 08:05:59;;;;;;;13.40;5.05;;;1.20;99.90;;;;;;5036476;28;20036;-68
2022/01/08 08:08:25;;;;;;;14.25;4.68;;;1.20;99.90;;;;;;5036741;28;20123;-69
2022/01/08 08:10:51;;;;;;;17.42;5.28;;;1.20;99.90;;;;;;5036869;28;20574;-69
2022/01/08 08:13:18;;;;;;;11.98;4.25;;;1.20;99.90;;;;;;5036687;28;20080;-68
2022/01/08 08:15:44;;;;;;;11.73;4.18;;;1.30;99.90;;;;;;5036756;28;20037;-68
2022/01/08 08:18:11;;;;;;;10.88;3.97;;;1.20;99.90;;;;;;5036675;28;20536;-68
2022/01/08 08:20:37;;;;;;;14.68;3.97;;;1.30;99.90;;;;;;5036477;28;20121;-68
2022/01/08 08:23:03;;;;;;;12.15;3.80;;;1.30;99.90;;;;;;5036242;28;20079;-68
2022/01/08 08:25:29;;;;;;;9.30;3.65;;;1.30;99.90;;;;;;5036171;28;20041;-68
2022/01/08 08:27:55;;;;;;;16.67;4.63;;;1.30;99.90;;;;;;5036189;28;20045;-68
2022/01/08 08:30:21;;;;;;;9.73;3.38;;;1.40;99.90;;;;;;5036054;28;20413;-68
2022/01/08 08:32:47;;;;;;;12.10;3.63;;;1.30;99.90;;;;;;5036271;28;20497;-68
2022/01/08 08:35:13;;;;;;;10.98;3.90;;;1.40;99.90;;;;;;5035851;28;20120;-68
2022/01/08 08:37:39;;;;;;;15.57;3.80;;;1.50;99.90;;;;;;5036251;28;20160;-68
2022/01/08 08:40:06;;;;;;;11.68;4.13;;;1.50;99.90;;;;;;5036257;28;20421;-68
2022/01/08 08:42:32;;;;;;;14.55;3.65;;;1.50;99.90;;;;;;5036235;28;20110;-68
2022/01/08 08:44:57;;;;;;;12.93;3.47;;;1.50;99.90;;;;;;5036062;28;20492;-68
2022/01/08 08:47:23;;;;;;;10.63;3.40;;;1.60;99.90;;;;;;5035920;28;20386;-68
2022/01/08 08:49:48;;;;;;;10.35;3.22;;;1.60;99.90;;;;;;5035837;28;20087;-68
2022/01/08 08:52:14;;;;;;;13.60;3.28;;;1.60;99.90;;;;;;5035734;28;20095;-68
2022/01/08 08:54:41;;;;;;;11.85;3.42;;;1.60;99.90;;;;;;5035934;28;20044;-68
2022/01/08 08:57:08;;;;;;;12.02;3.63;;;1.60;99.90;;;;;;5035422;28;20041;-68
2022/01/08 08:59:35;;;;;;;11.38;3.83;;;1.70;99.90;;;;;;5035854;28;20037;-69
2022/01/08 09:02:00;;;;;;;13.48;3.83;;;1.70;99.90;;;;;;5035560;28;20033;-69
2022/01/08 09:04:26;;;;;;;10.82;3.75;;;1.80;99.90;;;;;;5035567;28;20037;-69
2022/01/08 09:06:51;;;;;;;22.45;4.45;;;1.80;99.90;;;;;;5035395;28;20047;-69
2022/01/08 09:09:17;;;;;;;10.90;3.67;;;1.90;99.90;;;;;;5035442;28;20128;-71
2022/01/08 09:11:43;;;;;;;14.60;3.80;;;1.90;99.90;;;;;;5035352;28;20037;-71
2022/01/08 09:14:08;;;;;;;13.77;3.47;;;2.00;99.90;;;;;;5035352;28;20051;-71
2022/01/08 09:16:35;;;;;;;13.45;4.10;;;2.10;99.90;;;;;;5035085;28;20045;-71
2022/01/08 09:19:01;;;;;;;17.60;3.90;;;2.20;99.90;;;;;;5035354;28;20044;-71
2022/01/08 09:21:27;;;;;;;12.95;4.13;;;2.20;99.90;;;;;;5036120;28;20095;-72
2022/01/08 09:23:53;;;;;;;11.68;3.58;;;2.20;99.90;;;;;;5018926;28;20036;-72
2022/01/08 09:26:19;;;;;;;15.02;3.75;;;2.20;99.90;;;;;;5035226;28;20124;-71
2022/01/08 09:28:45;;;;;;;16.90;4.05;;;2.20;99.90;;;;;;5035616;28;20041;-71
2022/01/08 09:31:12;;;;;;;9.70;3.95;;;2.30;99.90;;;;;;5035157;28;20416;-71
2022/01/08 09:33:38;;;;;;;14.85;4.43;;;2.20;99.90;;;;;;5034723;28;20045;-71
2022/01/08 09:36:05;;;;;;;17.10;4.38;;;2.30;99.90;;;;;;5035197;28;20076;-71
2022/01/08 09:38:30;;;;;;;11.73;4.03;;;2.20;99.90;;;;;;5035612;28;20083;-71
2022/01/08 09:40:56;;;;;;;14.20;3.60;;;2.20;99.90;;;;;;5019098;28;20499;-71
2022/01/08 09:43:22;;;;;;;14.52;3.65;;;2.20;99.90;;;;;;5035458;28;20505;-71
2022/01/08 09:45:48;;;;;;;16.17;3.80;;;2.30;99.90;;;;;;5035058;28;20044;-71
2022/01/08 09:48:14;;;;;;;14.52;4.03;;;2.30;99.90;;;;;;5035228;28;20124;-70
2022/01/08 09:50:41;;;;;;;16.83;4.40;;;2.40;99.90;;;;;;5035583;28;20076;-71
2022/01/08 09:53:07;;;;;;;15.45;4.25;;;2.40;99.90;;;;;;5035344;28;20049;-71
2022/01/08 09:55:33;;;;;;;14.60;4.18;;;2.40;99.90;;;;;;5034892;28;20094;-71
2022/01/08 09:57:59;;;;;;;13.27;4.18;;;2.50;99.90;;;;;;5034982;28;20075;-71
2022/01/08 10:00:25;;;;;;;11.75;4.30;;;2.50;99.90;;;;;;5035189;28;20044;-71
2022/01/08 10:02:52;;;;;;;21.27;4.50;;;2.60;99.90;;;;;;5034927;28;20036;-71
2022/01/08 10:05:17;;;;;;;13.60;4.53;;;2.60;99.90;;;;;;5034867;28;20509;-71
2022/01/08 10:07:59;;;;;;;13.57;4.55;;;2.60;99.90;;;;;;5035098;28;20041;-71
2022/01/08 10:10:27;;;;;;;12.75;4.65;;;2.60;99.90;;;;;;5035006;28;20037;-71
2022/01/08 10:13:00;;;;;;;11.27;4.60;;;2.70;99.90;;;;;;5018693;28;20547;-71
2022/01/08 10:18:29;;;;;;;13.52;5.38;;;2.80;99.90;;;;;;5034793;28;20052;-71
2022/01/08 10:20:56;;;;;;;11.32;4.93;;;3.00;99.90;;;;;;5034723;28;20451;-71
2022/01/08 10:23:23;;;;;;;14.38;5.13;;;3.00;99.90;;;;;;5034729;28;20489;-71
2022/01/08 10:25:57;;;;;;;12.95;5.53;;;3.00;99.90;;;;;;5018087;28;20048;-72
2022/01/08 10:28:38;;;;;;;16.38;6.00;;;3.10;99.90;;;;;;5034668;28;20041;-72
2022/01/08 10:31:12;;;;;;;15.52;5.40;;;3.10;99.90;;;;;;5034665;28;20526;-71
2022/01/08 10:33:39;;;;;;;16.15;6.50;;;3.10;99.90;;;;;;5034690;28;20094;-71
2022/01/08 10:36:05;;;;;;;11.32;6.60;;;3.10;99.90;;;;;;5034525;28;20048;-71
2022/01/08 10:38:31;;;;;;;15.90;6.43;;;3.10;99.90;;;;;;5034588;28;20037;-71
2022/01/08 10:40:59;;;;;;;18.40;6.10;;;3.10;99.90;;;;;;5018156;28;20378;-72
2022/01/08 10:43:31;;;;;;;13.57;6.90;;;3.00;99.90;;;;;;5018129;28;20048;-72
2022/01/08 10:46:08;;;;;;;14.82;6.30;;;3.10;99.90;;;;;;5020717;28;20123;-71
2022/01/08 10:48:35;;;;;;;14.30;6.75;;;3.10;99.90;;;;;;5038434;28;20049;-71
2022/01/08 10:51:23;;;;;;;13.82;6.38;;;3.10;99.90;;;;;;5038086;28;20485;-71
2022/01/08 10:53:57;;;;;;;14.70;6.30;;;3.10;99.90;;;;;;5021984;28;20615;-72
2022/01/08 10:56:36;;;;;;;16.35;6.40;;;3.20;99.90;;;;;;5037790;28;20055;-72
2022/01/08 10:59:07;;;;;;;11.88;6.78;;;3.20;99.90;;;;;;5038176;28;20086;-72
2022/01/08 11:02:03;;;;;;;14.23;6.30;;;3.20;99.90;;;;;;5037784;28;20432;-72
2022/01/08 11:04:46;;;;;;;16.60;6.50;;;3.20;99.90;;;;;;5021484;28;20048;-72
2022/01/08 11:07:21;;;;;;;14.02;6.20;;;3.20;99.90;;;;;;5037691;28;20076;-72
2022/01/08 11:09:49;;;;;;;15.85;6.03;;;3.20;99.90;;;;;;5037582;28;20037;-72
2022/01/08 11:12:23;;;;;;;14.52;6.60;;;3.20;99.90;;;;;;5037659;28;20037;-72
2022/01/08 11:17:22;;;;;;;14.75;6.40;;;3.30;99.90;;;;;;5037351;28;20045;-72
2022/01/08 11:19:56;;;;;;;15.00;7.10;;;3.30;99.90;;;;;;5037472;28;20041;-72
2022/01/08 11:22:28;;;;;;;12.90;6.45;;;3.40;99.90;;;;;;5037690;28;20079;-72
2022/01/08 11:24:58;;;;;;;16.17;6.28;;;3.40;99.90;;;;;;5037434;28;20036;-72
2022/01/08 11:27:42;;;;;;;20.17;7.32;;;3.40;99.90;;;;;;5037699;28;20124;-69
2022/01/08 11:30:19;;;;;;;18.00;6.80;;;3.40;99.90;;;;;;5020986;28;20072;-70
2022/01/08 11:32:45;;;;;;;13.77;6.85;;;3.40;99.90;;;;;;5037273;28;20051;-70
2022/01/08 11:35:12;;;;;;;14.02;6.65;;;3.40;99.90;;;;;;5055178;28;20041;-70
2022/01/08 11:37:45;;;;;;;17.60;7.00;;;3.40;99.90;;;;;;5037318;28;20036;-70
2022/01/08 11:40:12;;;;;;;21.53;7.73;;;3.50;99.90;;;;;;5037134;28;20047;-69
2022/01/08 11:42:39;;;;;;;14.68;6.45;;;3.50;99.90;;;;;;5036983;28;20041;-69
2022/01/08 11:45:08;;;;;;;19.05;7.13;;;3.60;99.90;;;;;;5037168;28;20093;-69
2022/01/08 11:47:33;;;;;;;16.55;7.03;;;3.60;99.90;;;;;;5036953;28;20037;-69
2022/01/08 11:50:01;;;;;;;18.60;7.07;;;3.60;99.90;;;;;;5036898;28;20045;-69
2022/01/08 11:52:27;;;;;;;14.63;7.57;;;3.70;99.90;;;;;;5020268;28;20178;-69
2022/01/08 11:54:53;;;;;;;15.95;8.38;;;3.70;99.90;;;;;;5036754;28;20127;-69
2022/01/08 11:57:24;;;;;;;17.13;7.43;;;3.80;99.90;;;;;;5035968;28;20166;-69
2022/01/08 11:59:56;;;;;;;15.90;8.30;;;3.80;99.90;;;;;;5036668;28;20052;-69
2022/01/08 12:02:39;;;;;;;15.70;8.60;;;3.80;99.90;;;;;;5036961;28;20135;-69
2022/01/08 12:05:06;;;;;;;;;;;3.80;99.90;;;;;;5036968;28;20166;-69
2022/01/08 12:07:39;;;;;;;18.88;9.05;;;3.80;99.90;;;;;;5036593;28;19967;-69
2022/01/08 12:10:25;;;;;;;16.27;10.07;;;3.80;99.90;;;;;;5036597;28;20049;-69
2022/01/08 12:13:01;;;;;;;18.60;10.15;;;3.80;99.90;;;;;;5036688;28;20429;-69
2022/01/08 12:15:42;;;;;;;19.77;10.80;;;3.70;99.90;;;;;;5036255;28;20051;-69
2022/01/08 12:18:09;;;;;;;20.10;10.57;;;3.70;99.90;;;;;;5036332;28;20047;-69
2022/01/08 12:20:50;;;;;;;19.30;11.90;;;3.70;99.90;;;;;;5036300;28;20075;-69
2022/01/08 12:23:35;;;;;;;17.45;11.23;;;3.70;99.90;;;;;;5036364;28;20033;-69
2022/01/08 12:26:09;;;;;;;19.60;11.38;;;3.80;99.90;;;;;;5036509;28;20055;-69
2022/01/08 12:28:57;;;;;;;20.85;12.20;;;3.70;99.90;;;;;;5036250;28;20131;-69
2022/01/08 12:31:45;;;;;;;18.70;12.73;;;3.70;99.90;;;;;;5019714;28;20493;-69
2022/01/08 12:34:30;;;;;;;19.38;13.07;;;3.70;99.90;;;;;;5036064;28;20511;-69
2022/01/08 12:37:07;;;;;;;26.95;14.15;;;3.70;99.90;;;;;;5035876;28;20078;-69
2022/01/08 12:39:41;;;;;;;21.70;13.95;;;3.70;99.90;;;;;;5035978;28;20044;-69
2022/01/08 12:42:19;;;;;;;22.15;14.45;;;3.70;99.90;;;;;;5036155;28;20041;-69
2022/01/08 12:45:04;;;;;;;20.85;14.18;;;3.70;99.90;;;;;;5035847;28;20044;-69
2022/01/08 12:47:40;;;;;;;22.77;14.77;;;3.70;99.90;;;;;;5036116;28;20102;-69
2022/01/08 12:50:26;;;;;;;22.17;15.85;;;3.70;99.90;;;;;;5036032;28;20079;-69
2022/01/08 12:53:03;;;;;;;22.90;15.25;;;3.70;99.90;;;;;;5035742;28;20052;-69
2022/01/08 12:55:30;;;;;;;22.00;14.82;;;3.60;99.90;;;;;;5035584;28;20045;-69
2022/01/08 12:57:56;;;;;;;23.98;15.63;;;3.60;99.90;;;;;;5035809;28;20048;-69
2022/01/08 13:00:22;;;;;;;26.63;15.80;;;3.60;99.90;;;;;;5035587;28;20043;-69
2022/01/08 13:02:48;;;;;;;23.73;15.20;;;3.60;99.90;;;;;;5035784;28;20119;-69
2022/01/08 13:05:14;;;;;;;22.40;14.70;;;3.60;99.90;;;;;;5035792;28;20554;-69
2022/01/08 13:07:52;;;;;;;22.92;15.32;;;3.60;99.90;;;;;;5035015;28;20405;-69
2022/01/08 13:10:19;;;;;;;26.88;15.80;;;3.60;99.90;;;;;;5035108;28;20048;-69
2022/01/08 13:13:04;;;;;;;26.02;14.95;;;3.70;99.90;;;;;;5035425;28;20108;-69